sensor_id;sensor_type;location;lat;lon;timestamp;P1;durP1;ratioP1;P2;durP2;ratioP2
1366;SDS011;16877;48.810;9.282;2023-12-07T00:01:35;7.90;;;7.00;;
1366;SDS011;16877;48.810;9.282;2023-12-07T00:04:02;8.30;;;7.10;;
1366;SDS011;16877;48.810;9.282;2023-12-07T00:06:29;8.97;;;7.67;;
1366;SDS011;16877;48.810;9.282;2023-12-07T00:08:56;11.30;;;8.03;;
1366;SDS011;16877;48.810;9.282;2023-12-07T00:11:26;8.60;;;7.20;;
1366;SDS011;16877;48.810;9.282;2023-12-07T00:13:53;8.77;;;7.80;;
1366;SDS011;16877;48.810;9.282;2023-12-07T00:16:20;8.67;;;6.67;;
1366;SDS011;16877;48.810;9.282;2023-12-07T00:18:47;8.17;;;6.60;;
1366;SDS011;16877;48.810;9.282;2023-12-07T00:21:14;6.97;;;6.27;;
1366;SDS011;16877;48.810;9.282;2023-12-07T00:23:41;9.40;;;6.93;;
1366;SDS011;16877;48.810;9.282;2023-12-07T00:26:08;8.53;;;7.20;;
1366;SDS011;16877;48.810;9.282;2023-12-07T00:28:37;7.23;;;6.47;;
1366;SDS011;16877;48.810;9.282;2023-12-07T00:31:03;7.90;;;6.90;;
1366;SDS011;16877;48.810;9.282;2023-12-07T00:33:30;8.33;;;7.43;;
1366;SDS011;16877;48.810;9.282;2023-12-07T00:35:57;8.80;;;7.30;;
1366;SDS011;16877;48.810;9.282;2023-12-07T00:38:24;10.53;;;7.70;;
1366;SDS011;16877;48.810;9.282;2023-12-07T00:40:50;8.77;;;6.83;;
1366;SDS011;16877;48.810;9.282;2023-12-07T00:43:17;8.70;;;7.80;;
1366;SDS011;16877;48.810;9.282;2023-12-07T00:45:45;8.13;;;7.33;;
1366;SDS011;16877;48.810;9.282;2023-12-07T00:48:12;8.43;;;7.57;;
1366;SDS011;16877;48.810;9.282;2023-12-07T00:50:39;8.03;;;7.23;;
1366;SDS011;16877;48.810;9.282;2023-12-07T00:53:06;6.50;;;5.80;;
1366;SDS011;16877;48.810;9.282;2023-12-07T00:55:33;9.80;;;7.10;;
1366;SDS011;16877;48.810;9.282;2023-12-07T00:58:00;7.73;;;6.93;;
1366;SDS011;16877;48.810;9.282;2023-12-07T01:00:27;7.07;;;6.37;;
1366;SDS011;16877;48.810;9.282;2023-12-07T01:02:55;6.10;;;5.60;;
1366;SDS011;16877;48.810;9.282;2023-12-07T01:05:22;6.83;;;6.07;;
1366;SDS011;16877;48.810;9.282;2023-12-07T01:07:49;7.73;;;7.03;;
1366;SDS011;16877;48.810;9.282;2023-12-07T01:10:16;8.37;;;6.10;;
1366;SDS011;16877;48.810;9.282;2023-12-07T01:12:44;8.33;;;6.80;;
1366;SDS011;16877;48.810;9.282;2023-12-07T01:15:11;7.17;;;6.50;;
1366;SDS011;16877;48.810;9.282;2023-12-07T01:17:37;8.07;;;6.70;;
1366;SDS011;16877;48.810;9.282;2023-12-07T01:20:06;6.60;;;5.90;;
1366;SDS011;16877;48.810;9.282;2023-12-07T01:22:37;7.80;;;6.07;;
1366;SDS011;16877;48.810;9.282;2023-12-07T01:25:05;6.60;;;5.90;;
1366;SDS011;16877;48.810;9.282;2023-12-07T01:27:32;7.03;;;5.93;;
1366;SDS011;16877;48.810;9.282;2023-12-07T01:29:59;7.97;;;6.33;;
1366;SDS011;16877;48.810;9.282;2023-12-07T01:32:26;8.20;;;6.00;;
1366;SDS011;16877;48.810;9.282;2023-12-07T01:34:53;7.33;;;5.93;;
1366;SDS011;16877;48.810;9.282;2023-12-07T01:37:20;6.70;;;6.00;;
1366;SDS011;16877;48.810;9.282;2023-12-07T01:39:47;7.70;;;6.30;;
1366;SDS011;16877;48.810;9.282;2023-12-07T01:42:14;7.67;;;6.20;;
1366;SDS011;16877;48.810;9.282;2023-12-07T01:44:41;8.37;;;6.70;;
1366;SDS011;16877;48.810;9.282;2023-12-07T01:47:08;7.27;;;6.57;;
1366;SDS011;16877;48.810;9.282;2023-12-07T01:49:35;5.97;;;5.37;;
1366;SDS011;16877;48.810;9.282;2023-12-07T01:52:03;7.20;;;6.50;;
1366;SDS011;16877;48.810;9.282;2023-12-07T01:54:32;8.23;;;6.30;;
1366;SDS011;16877;48.810;9.282;2023-12-07T01:56:59;8.07;;;6.30;;
1366;SDS011;16877;48.810;9.282;2023-12-07T01:59:26;6.50;;;5.90;;
1366;SDS011;16877;48.810;9.282;2023-12-07T02:01:53;7.17;;;6.47;;
1366;SDS011;16877;48.810;9.282;2023-12-07T02:04:20;7.23;;;6.50;;
1366;SDS011;16877;48.810;9.282;2023-12-07T02:06:47;7.93;;;6.30;;
1366;SDS011;16877;48.810;9.282;2023-12-07T02:09:14;6.80;;;6.10;;
1366;SDS011;16877;48.810;9.282;2023-12-07T02:11:42;7.30;;;6.13;;
1366;SDS011;16877;48.810;9.282;2023-12-07T02:14:10;8.03;;;7.03;;
1366;SDS011;16877;48.810;9.282;2023-12-07T02:16:39;6.90;;;6.20;;
1366;SDS011;16877;48.810;9.282;2023-12-07T02:19:14;8.13;;;7.00;;
1366;SDS011;16877;48.810;9.282;2023-12-07T02:21:55;7.20;;;6.50;;
1366;SDS011;16877;48.810;9.282;2023-12-07T02:24:25;7.73;;;6.93;;
1366;SDS011;16877;48.810;9.282;2023-12-07T02:26:55;7.57;;;6.37;;
1366;SDS011;16877;48.810;9.282;2023-12-07T02:29:22;8.10;;;6.43;;
1366;SDS011;16877;48.810;9.282;2023-12-07T02:31:49;8.87;;;6.43;;
1366;SDS011;16877;48.810;9.282;2023-12-07T02:34:16;7.07;;;5.83;;
1366;SDS011;16877;48.810;9.282;2023-12-07T02:36:44;7.43;;;6.60;;
1366;SDS011;16877;48.810;9.282;2023-12-07T02:39:14;6.77;;;6.07;;
1366;SDS011;16877;48.810;9.282;2023-12-07T02:41:40;8.30;;;7.23;;
1366;SDS011;16877;48.810;9.282;2023-12-07T02:44:09;7.67;;;6.90;;
1366;SDS011;16877;48.810;9.282;2023-12-07T02:46:37;8.57;;;6.97;;
1366;SDS011;16877;48.810;9.282;2023-12-07T02:49:03;6.53;;;5.70;;
1366;SDS011;16877;48.810;9.282;2023-12-07T02:51:30;6.23;;;5.63;;
1366;SDS011;16877;48.810;9.282;2023-12-07T02:53:57;7.10;;;6.40;;
1366;SDS011;16877;48.810;9.282;2023-12-07T02:56:24;8.03;;;6.80;;
1366;SDS011;16877;48.810;9.282;2023-12-07T02:58:51;7.53;;;6.73;;
1366;SDS011;16877;48.810;9.282;2023-12-07T03:01:19;7.27;;;6.50;;
1366;SDS011;16877;48.810;9.282;2023-12-07T03:03:46;7.87;;;6.10;;
1366;SDS011;16877;48.810;9.282;2023-12-07T03:06:12;6.93;;;5.77;;
1366;SDS011;16877;48.810;9.282;2023-12-07T03:08:40;6.70;;;6.00;;
1366;SDS011;16877;48.810;9.282;2023-12-07T03:11:07;8.00;;;6.43;;
1366;SDS011;16877;48.810;9.282;2023-12-07T03:13:34;8.20;;;6.93;;
1366;SDS011;16877;48.810;9.282;2023-12-07T03:16:01;6.50;;;5.60;;
1366;SDS011;16877;48.810;9.282;2023-12-07T03:18:29;6.73;;;6.07;;
1366;SDS011;16877;48.810;9.282;2023-12-07T03:20:56;7.93;;;6.60;;
1366;SDS011;16877;48.810;9.282;2023-12-07T03:23:23;6.53;;;5.73;;
1366;SDS011;16877;48.810;9.282;2023-12-07T03:25:50;7.10;;;6.40;;
1366;SDS011;16877;48.810;9.282;2023-12-07T03:28:16;7.67;;;6.70;;
1366;SDS011;16877;48.810;9.282;2023-12-07T03:30:43;7.73;;;6.93;;
1366;SDS011;16877;48.810;9.282;2023-12-07T03:33:10;7.80;;;6.67;;
1366;SDS011;16877;48.810;9.282;2023-12-07T03:35:38;8.83;;;6.80;;
1366;SDS011;16877;48.810;9.282;2023-12-07T03:38:05;7.93;;;6.77;;
1366;SDS011;16877;48.810;9.282;2023-12-07T03:40:32;7.43;;;6.70;;
1366;SDS011;16877;48.810;9.282;2023-12-07T03:42:59;8.07;;;6.90;;
1366;SDS011;16877;48.810;9.282;2023-12-07T03:45:28;10.03;;;8.23;;
1366;SDS011;16877;48.810;9.282;2023-12-07T03:47:55;10.30;;;8.20;;
1366;SDS011;16877;48.810;9.282;2023-12-07T03:50:22;9.70;;;8.20;;
1366;SDS011;16877;48.810;9.282;2023-12-07T03:52:50;13.03;;;8.77;;
1366;SDS011;16877;48.810;9.282;2023-12-07T03:55:17;11.20;;;8.93;;
1366;SDS011;16877;48.810;9.282;2023-12-07T03:57:44;13.43;;;9.93;;
1366;SDS011;16877;48.810;9.282;2023-12-07T04:00:11;13.20;;;10.77;;
1366;SDS011;16877;48.810;9.282;2023-12-07T04:02:38;13.93;;;10.40;;
1366;SDS011;16877;48.810;9.282;2023-12-07T04:05:05;11.73;;;9.30;;
1366;SDS011;16877;48.810;9.282;2023-12-07T04:07:32;13.47;;;9.40;;
1366;SDS011;16877;48.810;9.282;2023-12-07T04:10:01;9.90;;;8.47;;
1366;SDS011;16877;48.810;9.282;2023-12-07T04:12:30;10.27;;;8.33;;
1366;SDS011;16877;48.810;9.282;2023-12-07T04:14:57;9.30;;;8.10;;
1366;SDS011;16877;48.810;9.282;2023-12-07T04:17:24;9.47;;;7.97;;
1366;SDS011;16877;48.810;9.282;2023-12-07T04:19:50;10.17;;;8.47;;
1366;SDS011;16877;48.810;9.282;2023-12-07T04:22:17;9.40;;;8.43;;
1366;SDS011;16877;48.810;9.282;2023-12-07T04:24:44;10.23;;;8.20;;
1366;SDS011;16877;48.810;9.282;2023-12-07T04:27:12;8.90;;;7.80;;
1366;SDS011;16877;48.810;9.282;2023-12-07T04:29:39;8.53;;;7.63;;
1366;SDS011;16877;48.810;9.282;2023-12-07T04:32:06;9.90;;;8.87;;
1366;SDS011;16877;48.810;9.282;2023-12-07T04:34:33;11.83;;;9.00;;
1366;SDS011;16877;48.810;9.282;2023-12-07T04:37:00;8.73;;;7.90;;
1366;SDS011;16877;48.810;9.282;2023-12-07T04:39:27;9.77;;;8.77;;
1366;SDS011;16877;48.810;9.282;2023-12-07T04:41:54;8.80;;;7.67;;
1366;SDS011;16877;48.810;9.282;2023-12-07T04:44:23;9.37;;;7.67;;
1366;SDS011;16877;48.810;9.282;2023-12-07T04:46:51;8.97;;;8.07;;
1366;SDS011;16877;48.810;9.282;2023-12-07T04:49:18;9.80;;;7.80;;
1366;SDS011;16877;48.810;9.282;2023-12-07T04:51:44;8.90;;;7.87;;
1366;SDS011;16877;48.810;9.282;2023-12-07T04:54:11;7.90;;;7.10;;
1366;SDS011;16877;48.810;9.282;2023-12-07T04:56:39;9.13;;;7.80;;
1366;SDS011;16877;48.810;9.282;2023-12-07T04:59:07;9.13;;;7.07;;
1366;SDS011;16877;48.810;9.282;2023-12-07T05:01:35;8.70;;;7.80;;
1366;SDS011;16877;48.810;9.282;2023-12-07T05:04:02;9.30;;;8.03;;
1366;SDS011;16877;48.810;9.282;2023-12-07T05:06:29;8.13;;;7.30;;
1366;SDS011;16877;48.810;9.282;2023-12-07T05:08:56;11.03;;;8.73;;
1366;SDS011;16877;48.810;9.282;2023-12-07T05:11:23;8.10;;;6.77;;
1366;SDS011;16877;48.810;9.282;2023-12-07T05:13:51;8.20;;;7.20;;
1366;SDS011;16877;48.810;9.282;2023-12-07T05:16:18;8.60;;;7.53;;
1366;SDS011;16877;48.810;9.282;2023-12-07T05:18:47;9.10;;;8.20;;
1366;SDS011;16877;48.810;9.282;2023-12-07T05:21:13;9.60;;;7.87;;
1366;SDS011;16877;48.810;9.282;2023-12-07T05:23:40;10.63;;;8.80;;
1366;SDS011;16877;48.810;9.282;2023-12-07T05:26:07;9.90;;;7.93;;
1366;SDS011;16877;48.810;9.282;2023-12-07T05:28:36;9.03;;;8.10;;
1366;SDS011;16877;48.810;9.282;2023-12-07T05:31:03;9.67;;;8.13;;
1366;SDS011;16877;48.810;9.282;2023-12-07T05:33:30;10.77;;;8.40;;
1366;SDS011;16877;48.810;9.282;2023-12-07T05:35:58;9.00;;;8.10;;
1366;SDS011;16877;48.810;9.282;2023-12-07T05:38:26;9.73;;;7.27;;
1366;SDS011;16877;48.810;9.282;2023-12-07T05:40:53;11.63;;;8.30;;
1366;SDS011;16877;48.810;9.282;2023-12-07T05:43:20;9.80;;;8.57;;
1366;SDS011;16877;48.810;9.282;2023-12-07T05:45:46;9.40;;;8.40;;
1366;SDS011;16877;48.810;9.282;2023-12-07T05:48:13;9.33;;;8.23;;
1366;SDS011;16877;48.810;9.282;2023-12-07T05:50:40;11.00;;;9.77;;
1366;SDS011;16877;48.810;9.282;2023-12-07T05:53:08;11.03;;;9.87;;
1366;SDS011;16877;48.810;9.282;2023-12-07T05:55:35;11.13;;;9.93;;
1366;SDS011;16877;48.810;9.282;2023-12-07T05:58:02;10.20;;;8.90;;
1366;SDS011;16877;48.810;9.282;2023-12-07T06:00:29;11.00;;;8.57;;
1366;SDS011;16877;48.810;9.282;2023-12-07T06:02:57;9.90;;;8.13;;
1366;SDS011;16877;48.810;9.282;2023-12-07T06:05:24;10.33;;;9.30;;
1366;SDS011;16877;48.810;9.282;2023-12-07T06:07:51;9.83;;;8.83;;
1366;SDS011;16877;48.810;9.282;2023-12-07T06:10:20;10.60;;;7.93;;
1366;SDS011;16877;48.810;9.282;2023-12-07T06:12:48;11.20;;;8.97;;
1366;SDS011;16877;48.810;9.282;2023-12-07T06:15:15;9.20;;;8.17;;
1366;SDS011;16877;48.810;9.282;2023-12-07T06:17:42;9.10;;;7.93;;
1366;SDS011;16877;48.810;9.282;2023-12-07T06:20:09;9.33;;;8.10;;
1366;SDS011;16877;48.810;9.282;2023-12-07T06:22:36;10.33;;;8.30;;
1366;SDS011;16877;48.810;9.282;2023-12-07T06:25:04;9.50;;;8.47;;
1366;SDS011;16877;48.810;9.282;2023-12-07T06:27:35;8.80;;;7.97;;
1366;SDS011;16877;48.810;9.282;2023-12-07T06:30:02;9.20;;;8.20;;
1366;SDS011;16877;48.810;9.282;2023-12-07T06:32:30;9.80;;;7.77;;
1366;SDS011;16877;48.810;9.282;2023-12-07T06:34:57;9.47;;;8.00;;
1366;SDS011;16877;48.810;9.282;2023-12-07T06:37:25;8.57;;;7.67;;
1366;SDS011;16877;48.810;9.282;2023-12-07T06:39:52;11.07;;;9.27;;
1366;SDS011;16877;48.810;9.282;2023-12-07T06:42:19;10.50;;;9.27;;
1366;SDS011;16877;48.810;9.282;2023-12-07T06:44:48;9.67;;;8.33;;
1366;SDS011;16877;48.810;9.282;2023-12-07T06:47:15;9.93;;;8.77;;
1366;SDS011;16877;48.810;9.282;2023-12-07T06:49:43;10.27;;;8.97;;
1366;SDS011;16877;48.810;9.282;2023-12-07T06:52:10;9.67;;;8.77;;
1366;SDS011;16877;48.810;9.282;2023-12-07T06:54:37;10.27;;;9.27;;
1366;SDS011;16877;48.810;9.282;2023-12-07T06:57:04;8.97;;;7.67;;
1366;SDS011;16877;48.810;9.282;2023-12-07T06:59:31;8.63;;;7.73;;
1366;SDS011;16877;48.810;9.282;2023-12-07T07:02:00;9.30;;;8.30;;
1366;SDS011;16877;48.810;9.282;2023-12-07T07:04:27;10.03;;;9.03;;
1366;SDS011;16877;48.810;9.282;2023-12-07T07:06:55;9.27;;;8.27;;
1366;SDS011;16877;48.810;9.282;2023-12-07T07:09:22;11.07;;;9.03;;
1366;SDS011;16877;48.810;9.282;2023-12-07T07:11:50;10.33;;;9.30;;
1366;SDS011;16877;48.810;9.282;2023-12-07T07:14:18;9.77;;;8.70;;
1366;SDS011;16877;48.810;9.282;2023-12-07T07:16:45;9.80;;;8.80;;
1366;SDS011;16877;48.810;9.282;2023-12-07T07:19:14;9.97;;;8.97;;
1366;SDS011;16877;48.810;9.282;2023-12-07T07:21:42;9.80;;;8.53;;
1366;SDS011;16877;48.810;9.282;2023-12-07T07:24:09;10.10;;;9.10;;
1366;SDS011;16877;48.810;9.282;2023-12-07T07:26:36;9.53;;;8.63;;
1366;SDS011;16877;48.810;9.282;2023-12-07T07:29:03;9.43;;;8.30;;
1366;SDS011;16877;48.810;9.282;2023-12-07T07:31:31;8.73;;;7.83;;
1366;SDS011;16877;48.810;9.282;2023-12-07T07:33:58;9.60;;;8.67;;
1366;SDS011;16877;48.810;9.282;2023-12-07T07:36:26;10.17;;;8.90;;
1366;SDS011;16877;48.810;9.282;2023-12-07T07:38:53;9.37;;;8.07;;
1366;SDS011;16877;48.810;9.282;2023-12-07T07:41:20;9.67;;;8.67;;
1366;SDS011;16877;48.810;9.282;2023-12-07T07:43:48;8.80;;;7.90;;
1366;SDS011;16877;48.810;9.282;2023-12-07T07:46:15;10.60;;;8.47;;
1366;SDS011;16877;48.810;9.282;2023-12-07T07:48:42;9.47;;;8.47;;
1366;SDS011;16877;48.810;9.282;2023-12-07T07:51:09;9.07;;;8.10;;
1366;SDS011;16877;48.810;9.282;2023-12-07T07:53:38;12.50;;;8.87;;
1366;SDS011;16877;48.810;9.282;2023-12-07T07:56:05;9.23;;;8.33;;
1366;SDS011;16877;48.810;9.282;2023-12-07T07:58:32;11.53;;;8.30;;
1366;SDS011;16877;48.810;9.282;2023-12-07T08:00:59;8.70;;;7.80;;
1366;SDS011;16877;48.810;9.282;2023-12-07T08:03:26;10.30;;;9.30;;
1366;SDS011;16877;48.810;9.282;2023-12-07T08:05:53;8.00;;;7.20;;
1366;SDS011;16877;48.810;9.282;2023-12-07T08:08:20;8.50;;;7.60;;
1366;SDS011;16877;48.810;9.282;2023-12-07T08:10:49;8.90;;;7.87;;
1366;SDS011;16877;48.810;9.282;2023-12-07T08:13:16;7.73;;;6.93;;
1366;SDS011;16877;48.810;9.282;2023-12-07T08:15:43;8.33;;;7.53;;
1366;SDS011;16877;48.810;9.282;2023-12-07T08:18:10;8.43;;;7.40;;
1366;SDS011;16877;48.810;9.282;2023-12-07T08:20:37;9.43;;;8.53;;
1366;SDS011;16877;48.810;9.282;2023-12-07T08:23:04;10.23;;;9.20;;
1366;SDS011;16877;48.810;9.282;2023-12-07T08:25:31;8.50;;;7.70;;
1366;SDS011;16877;48.810;9.282;2023-12-07T08:27:59;8.80;;;7.90;;
1366;SDS011;16877;48.810;9.282;2023-12-07T08:30:26;8.43;;;7.63;;
1366;SDS011;16877;48.810;9.282;2023-12-07T08:32:53;7.90;;;7.20;;
1366;SDS011;16877;48.810;9.282;2023-12-07T08:35:19;8.47;;;7.50;;
1366;SDS011;16877;48.810;9.282;2023-12-07T08:37:46;8.57;;;7.77;;
1366;SDS011;16877;48.810;9.282;2023-12-07T08:40:14;9.13;;;7.50;;
1366;SDS011;16877;48.810;9.282;2023-12-07T08:42:44;9.03;;;8.13;;
1366;SDS011;16877;48.810;9.282;2023-12-07T08:45:13;7.53;;;6.83;;
1366;SDS011;16877;48.810;9.282;2023-12-07T08:47:40;6.80;;;5.67;;
1366;SDS011;16877;48.810;9.282;2023-12-07T08:50:08;10.17;;;7.37;;
1366;SDS011;16877;48.810;9.282;2023-12-07T08:52:35;8.60;;;7.80;;
1366;SDS011;16877;48.810;9.282;2023-12-07T08:55:02;9.13;;;7.77;;
1366;SDS011;16877;48.810;9.282;2023-12-07T08:57:29;7.73;;;6.97;;
1366;SDS011;16877;48.810;9.282;2023-12-07T08:59:55;8.17;;;7.33;;
1366;SDS011;16877;48.810;9.282;2023-12-07T09:02:24;8.60;;;7.80;;
1366;SDS011;16877;48.810;9.282;2023-12-07T09:04:51;9.07;;;8.27;;
1366;SDS011;16877;48.810;9.282;2023-12-07T09:07:18;9.57;;;8.00;;
1366;SDS011;16877;48.810;9.282;2023-12-07T09:09:45;9.53;;;8.53;;
1366;SDS011;16877;48.810;9.282;2023-12-07T09:12:13;9.60;;;8.67;;
1366;SDS011;16877;48.810;9.282;2023-12-07T09:14:41;8.03;;;7.23;;
1366;SDS011;16877;48.810;9.282;2023-12-07T09:17:08;10.30;;;7.67;;
1366;SDS011;16877;48.810;9.282;2023-12-07T09:19:36;8.97;;;7.83;;
1366;SDS011;16877;48.810;9.282;2023-12-07T09:22:03;7.83;;;6.70;;
1366;SDS011;16877;48.810;9.282;2023-12-07T09:24:30;7.30;;;6.60;;
1366;SDS011;16877;48.810;9.282;2023-12-07T09:26:57;8.60;;;7.80;;
1366;SDS011;16877;48.810;9.282;2023-12-07T09:29:25;8.70;;;7.83;;
1366;SDS011;16877;48.810;9.282;2023-12-07T09:31:52;7.83;;;7.03;;
1366;SDS011;16877;48.810;9.282;2023-12-07T09:34:19;8.60;;;7.70;;
1366;SDS011;16877;48.810;9.282;2023-12-07T09:36:47;8.97;;;8.07;;
1366;SDS011;16877;48.810;9.282;2023-12-07T09:39:14;8.20;;;7.40;;
1366;SDS011;16877;48.810;9.282;2023-12-07T09:41:41;9.47;;;8.57;;
1366;SDS011;16877;48.810;9.282;2023-12-07T09:44:12;9.20;;;8.30;;
1366;SDS011;16877;48.810;9.282;2023-12-07T09:46:39;9.37;;;8.30;;
1366;SDS011;16877;48.810;9.282;2023-12-07T09:49:06;9.20;;;8.40;;
1366;SDS011;16877;48.810;9.282;2023-12-07T09:51:33;8.70;;;7.87;;
1366;SDS011;16877;48.810;9.282;2023-12-07T09:54:03;9.50;;;8.60;;
1366;SDS011;16877;48.810;9.282;2023-12-07T09:56:30;8.60;;;7.80;;
1366;SDS011;16877;48.810;9.282;2023-12-07T09:58:57;9.80;;;8.30;;
1366;SDS011;16877;48.810;9.282;2023-12-07T10:01:27;8.53;;;7.73;;
1366;SDS011;16877;48.810;9.282;2023-12-07T10:06:42;7.77;;;6.97;;
1366;SDS011;16877;48.810;9.282;2023-12-07T10:09:10;8.50;;;7.70;;
1366;SDS011;16877;48.810;9.282;2023-12-07T10:11:38;6.90;;;6.07;;
1366;SDS011;16877;48.810;9.282;2023-12-07T10:14:05;8.73;;;6.30;;
1366;SDS011;16877;48.810;9.282;2023-12-07T10:16:34;4.63;;;3.20;;
1366;SDS011;16877;48.810;9.282;2023-12-07T10:19:11;5.40;;;4.20;;
1366;SDS011;16877;48.810;9.282;2023-12-07T10:21:39;5.43;;;4.93;;
1366;SDS011;16877;48.810;9.282;2023-12-07T10:24:06;6.90;;;5.20;;
1366;SDS011;16877;48.810;9.282;2023-12-07T10:26:36;6.10;;;5.50;;
1366;SDS011;16877;48.810;9.282;2023-12-07T10:29:04;6.67;;;5.97;;
1366;SDS011;16877;48.810;9.282;2023-12-07T10:31:31;6.67;;;5.43;;
1366;SDS011;16877;48.810;9.282;2023-12-07T10:33:58;6.60;;;5.90;;
1366;SDS011;16877;48.810;9.282;2023-12-07T10:36:25;4.13;;;3.50;;
1366;SDS011;16877;48.810;9.282;2023-12-07T10:38:52;5.77;;;5.00;;
1366;SDS011;16877;48.810;9.282;2023-12-07T10:41:19;6.40;;;4.40;;
1366;SDS011;16877;48.810;9.282;2023-12-07T10:43:48;6.23;;;5.23;;
1366;SDS011;16877;48.810;9.282;2023-12-07T10:46:17;6.20;;;5.27;;
1366;SDS011;16877;48.810;9.282;2023-12-07T10:48:46;6.43;;;4.90;;
1366;SDS011;16877;48.810;9.282;2023-12-07T10:51:16;5.40;;;4.33;;
1366;SDS011;16877;48.810;9.282;2023-12-07T10:53:47;5.27;;;4.77;;
1366;SDS011;16877;48.810;9.282;2023-12-07T10:56:20;5.80;;;4.90;;
1366;SDS011;16877;48.810;9.282;2023-12-07T10:58:52;6.03;;;4.60;;
1366;SDS011;16877;48.810;9.282;2023-12-07T11:01:21;6.93;;;5.53;;
1366;SDS011;16877;48.810;9.282;2023-12-07T11:03:49;5.73;;;4.80;;
1366;SDS011;16877;48.810;9.282;2023-12-07T11:06:17;5.37;;;4.87;;
1366;SDS011;16877;48.810;9.282;2023-12-07T11:08:46;6.40;;;5.00;;
1366;SDS011;16877;48.810;9.282;2023-12-07T11:11:18;5.10;;;4.60;;
1366;SDS011;16877;48.810;9.282;2023-12-07T11:13:49;5.60;;;5.00;;
1366;SDS011;16877;48.810;9.282;2023-12-07T11:16:29;5.30;;;4.67;;
1366;SDS011;16877;48.810;9.282;2023-12-07T11:18:57;6.80;;;5.57;;
1366;SDS011;16877;48.810;9.282;2023-12-07T11:21:24;6.07;;;4.57;;
1366;SDS011;16877;48.810;9.282;2023-12-07T11:23:52;6.37;;;5.00;;
1366;SDS011;16877;48.810;9.282;2023-12-07T11:26:19;4.73;;;4.33;;
1366;SDS011;16877;48.810;9.282;2023-12-07T11:28:46;5.10;;;4.60;;
1366;SDS011;16877;48.810;9.282;2023-12-07T11:31:14;5.77;;;5.10;;
1366;SDS011;16877;48.810;9.282;2023-12-07T11:33:41;5.87;;;5.27;;
1366;SDS011;16877;48.810;9.282;2023-12-07T11:36:09;5.97;;;5.37;;
1366;SDS011;16877;48.810;9.282;2023-12-07T11:38:37;5.80;;;5.20;;
1366;SDS011;16877;48.810;9.282;2023-12-07T11:41:05;5.60;;;5.10;;
1366;SDS011;16877;48.810;9.282;2023-12-07T11:43:41;6.93;;;6.27;;
1366;SDS011;16877;48.810;9.282;2023-12-07T11:46:11;5.97;;;5.37;;
1366;SDS011;16877;48.810;9.282;2023-12-07T11:48:46;5.17;;;4.67;;
1366;SDS011;16877;48.810;9.282;2023-12-07T11:51:15;6.90;;;5.37;;
1366;SDS011;16877;48.810;9.282;2023-12-07T11:53:42;5.30;;;4.47;;
1366;SDS011;16877;48.810;9.282;2023-12-07T11:56:09;5.40;;;4.70;;
1366;SDS011;16877;48.810;9.282;2023-12-07T11:58:38;4.83;;;4.33;;
1366;SDS011;16877;48.810;9.282;2023-12-07T12:01:05;7.00;;;5.13;;
1366;SDS011;16877;48.810;9.282;2023-12-07T12:03:33;5.37;;;4.87;;
1366;SDS011;16877;48.810;9.282;2023-12-07T12:06:04;4.93;;;4.43;;
1366;SDS011;16877;48.810;9.282;2023-12-07T12:08:33;7.10;;;4.40;;
1366;SDS011;16877;48.810;9.282;2023-12-07T12:11:00;5.00;;;4.50;;
1366;SDS011;16877;48.810;9.282;2023-12-07T12:13:27;5.90;;;4.30;;
1366;SDS011;16877;48.810;9.282;2023-12-07T12:15:54;4.77;;;4.27;;
1366;SDS011;16877;48.810;9.282;2023-12-07T12:18:22;4.80;;;3.63;;
1366;SDS011;16877;48.810;9.282;2023-12-07T12:20:52;4.60;;;3.70;;
1366;SDS011;16877;48.810;9.282;2023-12-07T12:23:19;4.73;;;4.33;;
1366;SDS011;16877;48.810;9.282;2023-12-07T12:25:46;4.67;;;3.30;;
1366;SDS011;16877;48.810;9.282;2023-12-07T12:28:14;6.70;;;4.20;;
1366;SDS011;16877;48.810;9.282;2023-12-07T12:30:42;3.97;;;2.90;;
1366;SDS011;16877;48.810;9.282;2023-12-07T12:33:09;4.40;;;3.80;;
1366;SDS011;16877;48.810;9.282;2023-12-07T12:35:36;5.30;;;3.63;;
1366;SDS011;16877;48.810;9.282;2023-12-07T12:38:04;5.60;;;4.10;;
1366;SDS011;16877;48.810;9.282;2023-12-07T12:40:35;4.50;;;3.70;;
1366;SDS011;16877;48.810;9.282;2023-12-07T12:43:02;4.27;;;3.50;;
1366;SDS011;16877;48.810;9.282;2023-12-07T12:45:28;4.97;;;3.77;;
1366;SDS011;16877;48.810;9.282;2023-12-07T12:47:56;4.43;;;3.13;;
1366;SDS011;16877;48.810;9.282;2023-12-07T12:50:35;4.40;;;3.30;;
1366;SDS011;16877;48.810;9.282;2023-12-07T12:53:04;4.63;;;3.30;;
1366;SDS011;16877;48.810;9.282;2023-12-07T12:55:33;5.30;;;3.77;;
1366;SDS011;16877;48.810;9.282;2023-12-07T12:58:01;3.20;;;2.80;;
1366;SDS011;16877;48.810;9.282;2023-12-07T13:00:29;5.27;;;3.93;;
1366;SDS011;16877;48.810;9.282;2023-12-07T13:02:57;7.27;;;5.20;;
1366;SDS011;16877;48.810;9.282;2023-12-07T13:05:24;4.07;;;3.67;;
1366;SDS011;16877;48.810;9.282;2023-12-07T13:07:51;3.43;;;2.67;;
1366;SDS011;16877;48.810;9.282;2023-12-07T13:10:19;3.77;;;2.87;;
1366;SDS011;16877;48.810;9.282;2023-12-07T13:12:46;4.53;;;3.10;;
1366;SDS011;16877;48.810;9.282;2023-12-07T13:15:13;4.57;;;2.90;;
1366;SDS011;16877;48.810;9.282;2023-12-07T13:17:40;4.90;;;2.90;;
1366;SDS011;16877;48.810;9.282;2023-12-07T13:20:08;4.00;;;2.57;;
1366;SDS011;16877;48.810;9.282;2023-12-07T13:22:36;2.90;;;2.00;;
1366;SDS011;16877;48.810;9.282;2023-12-07T13:25:04;3.43;;;2.83;;
1366;SDS011;16877;48.810;9.282;2023-12-07T13:27:33;3.90;;;2.87;;
1366;SDS011;16877;48.810;9.282;2023-12-07T13:30:00;3.70;;;3.10;;
1366;SDS011;16877;48.810;9.282;2023-12-07T13:32:30;3.27;;;2.33;;
1366;SDS011;16877;48.810;9.282;2023-12-07T13:34:57;3.23;;;2.60;;
1366;SDS011;16877;48.810;9.282;2023-12-07T13:37:23;3.20;;;2.50;;
1366;SDS011;16877;48.810;9.282;2023-12-07T13:39:50;3.97;;;2.73;;
1366;SDS011;16877;48.810;9.282;2023-12-07T13:42:22;4.40;;;3.07;;
1366;SDS011;16877;48.810;9.282;2023-12-07T13:44:52;3.70;;;2.40;;
1366;SDS011;16877;48.810;9.282;2023-12-07T13:47:22;3.10;;;2.37;;
1366;SDS011;16877;48.810;9.282;2023-12-07T13:49:53;4.17;;;3.07;;
1366;SDS011;16877;48.810;9.282;2023-12-07T13:52:20;4.23;;;2.73;;
1366;SDS011;16877;48.810;9.282;2023-12-07T13:54:47;3.83;;;2.93;;
1366;SDS011;16877;48.810;9.282;2023-12-07T13:57:14;3.63;;;3.20;;
1366;SDS011;16877;48.810;9.282;2023-12-07T13:59:41;3.53;;;2.47;;
1366;SDS011;16877;48.810;9.282;2023-12-07T14:02:09;5.50;;;2.77;;
1366;SDS011;16877;48.810;9.282;2023-12-07T14:04:36;4.00;;;3.40;;
1366;SDS011;16877;48.810;9.282;2023-12-07T14:07:07;4.37;;;2.70;;
1366;SDS011;16877;48.810;9.282;2023-12-07T14:09:35;3.20;;;2.37;;
1366;SDS011;16877;48.810;9.282;2023-12-07T14:12:02;3.63;;;2.47;;
1366;SDS011;16877;48.810;9.282;2023-12-07T14:14:29;3.67;;;2.47;;
1366;SDS011;16877;48.810;9.282;2023-12-07T14:16:56;3.83;;;2.20;;
1366;SDS011;16877;48.810;9.282;2023-12-07T14:19:24;3.00;;;1.90;;
1366;SDS011;16877;48.810;9.282;2023-12-07T14:21:51;4.10;;;2.10;;
1366;SDS011;16877;48.810;9.282;2023-12-07T14:24:17;4.30;;;2.47;;
1366;SDS011;16877;48.810;9.282;2023-12-07T14:26:44;2.90;;;1.97;;
1366;SDS011;16877;48.810;9.282;2023-12-07T14:29:11;3.30;;;2.00;;
1366;SDS011;16877;48.810;9.282;2023-12-07T14:31:40;3.90;;;1.87;;
1366;SDS011;16877;48.810;9.282;2023-12-07T14:34:07;3.23;;;2.20;;
1366;SDS011;16877;48.810;9.282;2023-12-07T14:36:35;3.30;;;2.13;;
1366;SDS011;16877;48.810;9.282;2023-12-07T14:39:03;3.03;;;1.80;;
1366;SDS011;16877;48.810;9.282;2023-12-07T14:41:31;3.33;;;2.00;;
1366;SDS011;16877;48.810;9.282;2023-12-07T14:43:58;4.00;;;2.40;;
1366;SDS011;16877;48.810;9.282;2023-12-07T14:46:25;3.50;;;2.10;;
1366;SDS011;16877;48.810;9.282;2023-12-07T14:48:51;3.07;;;2.20;;
1366;SDS011;16877;48.810;9.282;2023-12-07T14:51:18;3.93;;;2.50;;
1366;SDS011;16877;48.810;9.282;2023-12-07T14:53:46;3.23;;;2.30;;
1366;SDS011;16877;48.810;9.282;2023-12-07T14:56:13;3.70;;;2.10;;
1366;SDS011;16877;48.810;9.282;2023-12-07T14:58:40;3.50;;;2.13;;
1366;SDS011;16877;48.810;9.282;2023-12-07T15:01:07;4.00;;;1.93;;
1366;SDS011;16877;48.810;9.282;2023-12-07T15:03:33;4.00;;;2.33;;
1366;SDS011;16877;48.810;9.282;2023-12-07T15:06:00;5.67;;;2.70;;